Atascadero, California
Current Conditions -  °F | °C
As of 4:11 AM on Monday 20 Oct 2014 (Local Time) from KPRB Reporting Station
Overcast Overcast  
Wind Chill: 13°   Ceiling: 400
Heat Index: 13°   Visibility: 10mi
Dew Point: 11°   Wind: 3mph
Humidity: 86%   Direction: 260°W
Pressure: 29.93"   Gusts: NA
Location:  35.49°N, 120.66°W
Report Text: KPRB 201111Z AUTO 26003KT 10SM OVC004 13/11 A2993 RMK AO2 T01280106 TSNO
Loading
Personal Weather Stations






























Interactive Weather Map
Tropical Storm Tracking
New forecast layout! Learn more

10-Day Weather Forecast

Advertisements
Track Severe Weather on mobile